Time,TemperatureF,DewpointF,PressureIn,WindDirection,WindDirectionDegrees,WindSpeedMPH,WindSpeedGustMPH,Humidity,HourlyPrecipIn,Conditions,Clouds,dailyrainin,SoftwareType,DateUTC
2013-11-20 08:00:00,34.2,27.0,30.29,SSE,158,8.5,8.5,75,0.00,,,0.00,WUHU216HW,2013-11-20 14:00:00,
2013-11-20 08:01:00,34.2,27.0,30.30,SE,135,4.9,4.9,75,0.00,,,0.00,WUHU216HW,2013-11-20 14:01:00,
2013-11-20 08:05:00,34.2,27.0,30.30,SE,135,4.9,8.7,75,0.00,,,0.00,WUHU216HW,2013-11-20 14:05:00,
2013-11-20 08:10:00,34.2,27.0,30.30,SE,135,4.9,8.7,75,0.00,,,0.00,WUHU216HW,2013-11-20 14:10:00,
2013-11-20 08:31:00,34.6,26.7,30.31,South,180,4.0,4.0,73,0.00,,,0.00,WUHU216HW,2013-11-20 14:31:00,
2013-11-20 08:36:00,34.6,26.7,30.31,South,180,4.0,4.0,73,0.00,,,0.00,WUHU216HW,2013-11-20 14:36:00,
2013-11-20 09:00:00,34.9,27.1,30.30,SE,135,6.0,6.0,73,0.00,,,0.00,WUHU216HW,2013-11-20 15:00:00,
2013-11-20 09:05:00,34.9,27.1,30.30,SE,135,6.0,6.0,73,0.00,,,0.00,WUHU216HW,2013-11-20 15:05:00,
2013-11-20 09:30:00,35.3,27.1,30.31,South,180,6.3,6.3,72,0.00,,,0.00,WUHU216HW,2013-11-20 15:30:00,
2013-11-20 09:35:00,35.3,27.1,30.31,South,180,6.3,6.3,72,0.00,,,0.00,WUHU216HW,2013-11-20 15:35:00,
2013-11-20 10:00:00,35.5,27.0,30.31,SE,135,15.0,15.0,71,0.00,,,0.00,WUHU216HW,2013-11-20 16:00:00,
2013-11-20 10:05:00,35.5,27.0,30.31,SE,135,15.0,15.0,71,0.00,,,0.00,WUHU216HW,2013-11-20 16:05:00,
2013-11-20 10:30:00,35.8,26.7,30.31,SSW,203,6.5,6.5,69,0.00,,,0.00,WUHU216HW,2013-11-20 16:30:00,
2013-11-20 10:35:00,35.8,26.7,30.31,SSW,203,6.5,6.5,69,0.00,,,0.00,WUHU216HW,2013-11-20 16:35:00,
2013-11-20 11:00:00,36.5,26.7,30.30,SSE,158,7.2,7.2,67,0.00,,,0.00,WUHU216HW,2013-11-20 17:00:00,
2013-11-20 11:05:00,36.5,26.7,30.30,SSE,158,7.2,7.2,67,0.00,,,0.00,WUHU216HW,2013-11-20 17:05:00,
2013-11-20 11:30:00,37.1,26.7,30.30,SSE,158,5.8,5.8,66,0.00,,,0.00,WUHU216HW,2013-11-20 17:30:00,
2013-11-20 11:35:00,37.1,26.7,30.30,SSE,158,5.8,5.8,66,0.00,,,0.00,WUHU216HW,2013-11-20 17:35:00,
2013-11-20 11:59:00,37.1,26.4,30.30,SSW,203,7.8,7.8,65,0.00,,,0.00,WUHU216HW,2013-11-20 17:59:00,
2013-11-20 12:00:00,37.1,26.4,30.30,SSW,203,7.8,7.8,65,0.00,,,0.00,WUHU216HW,2013-11-20 18:00:00,
2013-11-20 12:05:00,37.1,26.4,30.30,SSW,203,7.8,7.8,65,0.00,,,0.00,WUHU216HW,2013-11-20 18:05:00,
2013-11-20 12:30:00,36.7,26.5,30.30,SE,135,9.4,9.4,66,0.00,,,0.00,WUHU216HW,2013-11-20 18:30:00,
2013-11-20 12:35:00,36.7,26.5,30.30,SE,135,9.4,9.4,66,0.00,,,0.00,WUHU216HW,2013-11-20 18:35:00,
2013-11-20 13:00:00,36.5,28.1,30.31,SSW,203,6.5,6.5,71,0.00,,,0.00,WUHU216HW,2013-11-20 19:00:00,
2013-11-20 13:05:00,36.5,28.1,30.31,South,180,4.7,6.5,71,0.00,,,0.00,WUHU216HW,2013-11-20 19:05:00,
2013-11-20 13:10:00,36.5,28.1,30.31,South,180,4.7,6.5,71,0.00,,,0.00,WUHU216HW,2013-11-20 19:10:00,
2013-11-20 13:30:00,34.6,29.5,30.29,SSE,158,6.3,6.3,82,0.00,,,0.00,WUHU216HW,2013-11-20 19:30:00,
2013-11-20 13:35:00,34.6,29.5,30.29,SSE,158,6.3,6.3,82,0.00,,,0.00,WUHU216HW,2013-11-20 19:35:00,
2013-11-20 14:00:00,34.7,30.3,30.28,SSE,158,2.2,2.2,84,0.00,,,0.00,WUHU216HW,2013-11-20 20:00:00,
2013-11-20 14:05:00,34.7,30.3,30.28,SSE,158,2.2,2.2,84,0.00,,,0.00,WUHU216HW,2013-11-20 20:05:00,
2013-11-20 14:10:00,34.7,30.3,30.28,SSE,158,2.2,2.2,84,0.00,,,0.00,WUHU216HW,2013-11-20 20:10:00,
2013-11-20 14:30:00,34.2,30.1,30.29,SSE,158,3.4,3.4,85,0.00,,,0.00,WUHU216HW,2013-11-20 20:30:00,
2013-11-20 14:35:00,34.2,30.1,30.29,SSE,158,3.4,3.4,85,0.00,,,0.00,WUHU216HW,2013-11-20 20:35:00,
2013-11-20 15:00:00,32.8,29.4,30.29,South,180,3.4,3.4,87,0.00,,,0.00,WUHU216HW,2013-11-20 21:00:00,
2013-11-20 15:05:00,32.8,29.4,30.29,South,180,3.4,3.4,87,0.00,,,0.00,WUHU216HW,2013-11-20 21:05:00,
2013-11-20 15:30:00,32.6,28.5,30.29,SSE,158,0.2,0.2,85,0.00,,,0.00,WUHU216HW,2013-11-20 21:30:00,
2013-11-20 15:35:00,32.6,28.5,30.29,SSE,158,0.2,0.2,85,0.00,,,0.00,WUHU216HW,2013-11-20 21:35:00,
2013-11-20 16:00:00,32.4,29.3,30.28,SSE,158,2.9,2.9,88,0.00,,,0.00,WUHU216HW,2013-11-20 22:00:00,
2013-11-20 16:05:00,32.4,29.3,30.28,SSE,158,2.9,2.9,88,0.00,,,0.00,WUHU216HW,2013-11-20 22:05:00,
2013-11-20 16:30:00,32.0,29.3,30.28,SSE,158,3.4,3.4,89,0.00,,,0.00,WUHU216HW,2013-11-20 22:30:00,
2013-11-20 16:35:00,32.0,29.3,30.28,SSE,158,3.4,3.4,89,0.00,,,0.00,WUHU216HW,2013-11-20 22:35:00,
2013-11-20 17:00:00,32.0,29.5,30.28,South,180,5.1,5.1,90,0.00,,,0.00,WUHU216HW,2013-11-20 23:00:00,
2013-11-20 17:05:00,32.0,29.5,30.28,South,180,5.1,5.1,90,0.00,,,0.00,WUHU216HW,2013-11-20 23:05:00,
2013-11-20 17:10:00,32.0,29.5,30.28,South,180,5.1,5.1,90,0.00,,,0.00,WUHU216HW,2013-11-20 23:10:00,
2013-11-20 17:30:00,32.0,29.5,30.28,SSE,158,4.0,4.0,90,0.00,,,0.00,WUHU216HW,2013-11-20 23:30:00,
2013-11-20 17:35:00,32.0,29.5,30.28,SSE,158,4.0,4.0,90,0.00,,,0.00,WUHU216HW,2013-11-20 23:35:00,
2013-11-20 18:00:00,32.2,29.7,30.28,SE,135,2.7,2.7,90,0.00,,,0.00,WUHU216HW,2013-11-21 00:00:00,
2013-11-20 18:05:00,32.2,29.7,30.28,SE,135,2.7,2.7,90,0.00,,,0.00,WUHU216HW,2013-11-21 00:05:00,
2013-11-20 18:10:00,32.2,29.7,30.28,SE,135,2.7,2.7,90,0.00,,,0.00,WUHU216HW,2013-11-21 00:10:00,
2013-11-20 18:30:00,32.6,30.0,30.27,SSE,158,6.3,6.3,90,0.00,,,0.00,WUHU216HW,2013-11-21 00:30:00,
2013-11-20 18:35:00,32.6,30.0,30.27,SSE,158,6.3,6.3,90,0.00,,,0.00,WUHU216HW,2013-11-21 00:35:00,
2013-11-20 19:00:00,32.6,30.0,30.27,SSE,158,6.3,6.3,90,0.00,,,0.00,WUHU216HW,2013-11-21 01:00:00,
2013-11-20 19:05:00,32.6,30.0,30.27,SE,135,6.5,6.5,90,0.00,,,0.00,WUHU216HW,2013-11-21 01:05:00,
2013-11-20 19:10:00,32.6,30.0,30.27,SE,135,6.5,6.5,90,0.00,,,0.00,WUHU216HW,2013-11-21 01:10:00,
2013-11-20 19:30:00,32.4,30.1,30.28,South,180,2.7,2.7,91,0.00,,,0.00,WUHU216HW,2013-11-21 01:30:00,
2013-11-20 19:35:00,32.4,30.1,30.28,South,180,2.7,2.7,91,0.00,,,0.00,WUHU216HW,2013-11-21 01:35:00,
2013-11-20 20:00:00,32.4,29.9,30.28,SSE,158,3.8,3.8,90,0.00,,,0.00,WUHU216HW,2013-11-21 02:00:00,
2013-11-20 20:05:00,32.4,29.9,30.28,SSE,158,3.8,3.8,90,0.00,,,0.00,WUHU216HW,2013-11-21 02:05:00,
2013-11-20 20:30:00,32.6,30.0,30.29,SSE,158,4.0,4.0,90,0.00,,,0.00,WUHU216HW,2013-11-21 02:30:00,
2013-11-20 20:35:00,32.6,30.0,30.29,SSE,158,4.0,4.0,90,0.00,,,0.00,WUHU216HW,2013-11-21 02:35:00,
2013-11-20 21:00:00,32.4,29.9,30.29,SE,135,4.0,4.0,90,0.00,,,0.00,WUHU216HW,2013-11-21 03:00:00,
2013-11-20 21:05:00,32.4,29.9,30.29,SE,135,4.0,4.0,90,0.00,,,0.00,WUHU216HW,2013-11-21 03:05:00,
2013-11-20 21:10:00,32.4,29.9,30.29,SE,135,4.0,4.0,90,0.00,,,0.00,WUHU216HW,2013-11-21 03:10:00,
2013-11-20 21:30:00,32.4,29.5,30.29,SSE,158,1.6,1.6,89,0.00,,,0.00,WUHU216HW,2013-11-21 03:30:00,
2013-11-20 21:35:00,32.4,29.5,30.29,SSE,158,1.6,1.6,89,0.00,,,0.00,WUHU216HW,2013-11-21 03:35:00,
2013-11-20 22:00:00,32.4,29.5,30.29,South,180,0.4,0.4,89,0.00,,,0.00,WUHU216HW,2013-11-21 04:00:00,
2013-11-20 22:05:00,32.4,29.5,30.29,South,180,0.4,0.4,89,0.00,,,0.00,WUHU216HW,2013-11-21 04:05:00,
2013-11-20 22:30:00,32.4,29.5,30.29,South,180,1.3,1.3,89,0.00,,,0.00,WUHU216HW,2013-11-21 04:30:00,
2013-11-20 22:35:00,32.4,29.5,30.29,South,180,1.3,1.3,89,0.00,,,0.00,WUHU216HW,2013-11-21 04:35:00,